createdAt,value
2023-05-25T00:00:33.056Z,18.72
2023-05-25T00:01:33.042Z,18.72
2023-05-25T00:02:33.079Z,18.70
2023-05-25T00:03:33.242Z,18.72
2023-05-25T00:04:33.114Z,18.72
2023-05-25T00:05:32.985Z,18.72
2023-05-25T00:06:32.988Z,18.72
2023-05-25T00:07:32.961Z,18.70
2023-05-25T00:08:32.944Z,18.72
2023-05-25T00:09:32.935Z,18.72
2023-05-25T00:10:32.951Z,18.72
2023-05-25T00:11:32.941Z,18.70
2023-05-25T00:12:32.908Z,18.69
2023-05-25T00:13:32.891Z,18.72
2023-05-25T00:14:32.907Z,18.72
2023-05-25T00:15:32.878Z,18.70
2023-05-25T00:16:32.946Z,18.70
2023-05-25T00:17:32.861Z,18.70
2023-05-25T00:18:32.855Z,18.70
2023-05-25T00:19:32.828Z,18.70
2023-05-25T00:20:32.880Z,18.70
2023-05-25T00:21:32.825Z,18.70
2023-05-25T00:22:32.814Z,18.70
2023-05-25T00:23:32.784Z,18.70
2023-05-25T00:24:32.821Z,18.70
2023-05-25T00:25:32.767Z,18.70
2023-05-25T00:26:32.803Z,18.70
2023-05-25T00:27:32.747Z,18.70
2023-05-25T00:28:32.734Z,18.72
2023-05-25T00:29:32.722Z,18.70
2023-05-25T00:30:32.717Z,18.70
2023-05-25T00:31:32.738Z,18.72
2023-05-25T00:32:32.778Z,18.70
2023-05-25T00:33:32.676Z,18.70
2023-05-25T00:34:32.667Z,18.70
2023-05-25T00:35:32.691Z,18.70
2023-05-25T00:36:32.646Z,18.69
2023-05-25T00:37:32.637Z,18.70
2023-05-25T00:38:32.622Z,18.70
2023-05-25T00:39:32.611Z,18.70
2023-05-25T00:40:32.600Z,18.69
2023-05-25T00:41:32.616Z,18.70
2023-05-25T00:42:32.605Z,18.70
2023-05-25T00:43:32.590Z,18.69
2023-05-25T00:44:32.558Z,18.69
2023-05-25T00:45:32.554Z,18.70
2023-05-25T00:46:32.583Z,18.69
2023-05-25T00:47:32.550Z,18.70
2023-05-25T00:48:32.542Z,18.70
2023-05-25T00:49:32.530Z,18.70
2023-05-25T00:50:32.498Z,18.69
2023-05-25T00:51:32.487Z,18.69
2023-05-25T00:52:32.475Z,18.69
2023-05-25T00:53:32.463Z,18.69
2023-05-25T00:54:32.471Z,18.69
2023-05-25T00:55:32.443Z,18.69
2023-05-25T00:56:32.433Z,18.69
2023-05-25T00:57:32.441Z,18.69
2023-05-25T00:58:32.437Z,18.67
2023-05-25T00:59:32.420Z,18.69
2023-05-25T01:00:32.397Z,18.70
2023-05-25T01:01:32.443Z,18.69
2023-05-25T01:02:32.428Z,18.69
2023-05-25T01:03:32.424Z,18.67
2023-05-25T01:04:32.365Z,18.69
2023-05-25T01:05:32.336Z,18.69
2023-05-25T01:06:32.324Z,18.67
2023-05-25T01:07:32.317Z,18.67
2023-05-25T01:08:32.306Z,18.67
2023-05-25T01:09:32.311Z,18.67
2023-05-25T01:10:32.300Z,18.67
2023-05-25T01:11:32.274Z,18.67
2023-05-25T01:12:32.261Z,18.67
2023-05-25T01:13:32.271Z,18.67
2023-05-25T01:14:32.267Z,18.67
2023-05-25T01:15:32.242Z,18.69
2023-05-25T01:16:32.260Z,18.67
2023-05-25T01:17:32.324Z,18.66
2023-05-25T01:18:32.195Z,18.67
2023-05-25T01:19:32.226Z,18.67
2023-05-25T01:20:32.248Z,18.67
2023-05-25T01:21:32.164Z,18.69
2023-05-25T01:22:32.152Z,18.69
2023-05-25T01:23:32.161Z,18.69
2023-05-25T01:46:37.777Z,18.69
2023-05-25T01:47:14.396Z,18.66
2023-05-25T01:48:14.393Z,18.67
2023-05-25T01:49:14.377Z,18.66
2023-05-25T01:50:14.402Z,18.65
2023-05-25T01:51:14.375Z,18.66
2023-05-25T01:52:14.418Z,18.67
2023-05-25T01:53:14.330Z,18.67
2023-05-25T01:54:14.355Z,18.67
2023-05-25T01:55:14.307Z,18.66
2023-05-25T01:56:14.318Z,18.66
2023-05-25T01:57:14.293Z,18.66
2023-05-25T01:58:14.275Z,18.65
2023-05-25T01:59:14.312Z,18.65
2023-05-25T02:00:14.307Z,18.66
2023-05-25T02:01:14.292Z,18.66
2023-05-25T02:02:14.258Z,18.66
2023-05-25T02:03:14.228Z,18.66
2023-05-25T02:04:14.303Z,18.66
2023-05-25T02:05:14.208Z,18.66
2023-05-25T02:06:14.191Z,18.66
2023-05-25T02:07:14.228Z,18.66
2023-05-25T02:08:14.172Z,18.66
2023-05-25T02:09:14.157Z,18.66
2023-05-25T02:10:14.160Z,18.65
2023-05-25T02:11:14.140Z,18.66
2023-05-25T02:12:14.138Z,18.65
2023-05-25T02:13:14.156Z,18.66
2023-05-25T02:14:14.107Z,18.66
2023-05-25T02:15:14.097Z,18.66
2023-05-25T02:16:14.098Z,18.65
2023-05-25T02:17:14.079Z,18.65
2023-05-25T02:18:14.256Z,18.65
2023-05-25T02:19:14.093Z,18.66
2023-05-25T02:20:14.114Z,18.66
2023-05-25T02:21:14.031Z,18.65
2023-05-25T02:22:14.021Z,18.66
2023-05-25T02:23:14.053Z,18.65
2023-05-25T02:24:13.998Z,18.66
2023-05-25T02:25:13.992Z,18.65
2023-05-25T02:26:13.985Z,18.63
2023-05-25T02:27:13.970Z,18.65
2023-05-25T02:28:14.005Z,18.65
2023-05-25T02:29:13.947Z,18.65
2023-05-25T02:30:13.955Z,18.63
2023-05-25T02:31:13.992Z,18.65
2023-05-25T02:32:13.951Z,18.65
2023-05-25T02:33:13.925Z,18.65
2023-05-25T02:34:13.914Z,18.65
2023-05-25T02:35:13.928Z,18.65
2023-05-25T02:36:13.871Z,18.65
2023-05-25T02:37:13.871Z,18.65
2023-05-25T02:38:13.857Z,18.65
2023-05-25T02:39:13.854Z,18.65
2023-05-25T02:40:13.890Z,18.65
2023-05-25T02:41:13.827Z,18.65
2023-05-25T02:42:13.806Z,18.65
2023-05-25T02:43:13.806Z,18.65
2023-05-25T02:44:13.794Z,18.65
2023-05-25T02:45:13.825Z,18.63
2023-05-25T02:46:13.778Z,18.65
2023-05-25T02:47:13.792Z,18.63
2023-05-25T02:48:13.742Z,18.63
2023-05-25T02:49:13.729Z,18.65
2023-05-25T02:50:13.809Z,18.63
2023-05-25T02:51:13.710Z,18.65
2023-05-25T02:52:13.706Z,18.63
2023-05-25T02:53:13.736Z,18.63
2023-05-25T02:54:13.681Z,18.63
2023-05-25T02:55:13.735Z,18.63
2023-05-25T02:56:13.658Z,18.63
2023-05-25T02:57:13.704Z,18.65
2023-05-25T02:58:13.633Z,18.63
2023-05-25T02:59:13.621Z,18.62
2023-05-25T03:00:13.621Z,18.63
2023-05-25T03:01:13.699Z,18.63
2023-05-25T03:02:13.593Z,18.63
2023-05-25T03:03:13.637Z,18.63
2023-05-25T03:04:13.575Z,18.63
2023-05-25T03:05:13.558Z,18.63
2023-05-25T03:06:13.574Z,18.63
2023-05-25T03:07:13.536Z,18.63
2023-05-25T03:08:13.574Z,18.63
2023-05-25T03:09:13.517Z,18.63
2023-05-25T03:10:13.528Z,18.63
2023-05-25T03:11:13.494Z,18.63
2023-05-25T03:12:13.483Z,18.62
2023-05-25T03:13:13.470Z,18.63
2023-05-25T03:14:13.505Z,18.62
2023-05-25T03:15:13.450Z,18.63
2023-05-25T03:16:13.502Z,18.62
2023-05-25T03:17:13.437Z,18.63
2023-05-25T03:18:13.417Z,18.62
2023-05-25T03:19:13.447Z,18.63
2023-05-25T03:20:13.445Z,18.63
2023-05-25T03:21:13.389Z,18.63
2023-05-25T03:22:13.459Z,18.62
2023-05-25T03:23:13.382Z,18.65
2023-05-25T03:24:13.355Z,18.60
2023-05-25T03:25:13.359Z,18.63
2023-05-25T03:26:13.339Z,18.60
2023-05-25T03:27:13.375Z,18.62
2023-05-25T03:28:13.312Z,18.62
2023-05-25T03:29:13.310Z,18.62
2023-05-25T03:30:13.309Z,18.62
2023-05-25T03:31:13.326Z,18.62
2023-05-25T03:32:13.427Z,18.60
2023-05-25T03:33:13.295Z,18.62
2023-05-25T03:34:13.287Z,18.62
2023-05-25T03:35:13.240Z,18.60
2023-05-25T03:36:13.226Z,18.60
2023-05-25T03:37:13.232Z,18.62
2023-05-25T03:38:13.228Z,18.62
2023-05-25T03:39:13.249Z,18.62
2023-05-25T03:40:13.190Z,18.60
2023-05-25T03:41:13.193Z,18.62
2023-05-25T03:42:13.187Z,18.62
2023-05-25T03:43:13.190Z,18.62
2023-05-25T03:44:13.183Z,18.62
2023-05-25T03:45:13.129Z,18.60
2023-05-25T03:46:13.160Z,18.62
2023-05-25T03:47:13.117Z,18.62
2023-05-25T03:48:13.099Z,18.60
2023-05-25T03:49:13.128Z,18.62
2023-05-25T03:50:13.080Z,18.62
2023-05-25T03:51:13.067Z,18.60
2023-05-25T03:52:13.056Z,18.62
2023-05-25T03:53:13.090Z,18.60
2023-05-25T03:54:13.060Z,18.62
2023-05-25T03:55:13.024Z,18.58
2023-05-25T03:56:13.023Z,18.62
2023-05-25T03:57:13.052Z,18.62
2023-05-25T03:58:12.989Z,18.62
2023-05-25T03:59:13.018Z,18.62
2023-05-25T04:00:12.982Z,18.60
2023-05-25T04:01:12.966Z,18.62
2023-05-25T04:02:12.974Z,18.60
2023-05-25T04:03:13.150Z,18.60
2023-05-25T04:04:13.011Z,18.60
2023-05-25T04:05:12.937Z,18.60
2023-05-25T04:06:12.911Z,18.62
2023-05-25T04:07:12.931Z,18.58
2023-05-25T04:08:12.887Z,18.60
2023-05-25T04:09:12.921Z,18.60
2023-05-25T04:10:12.884Z,18.60
2023-05-25T04:11:12.850Z,18.60
2023-05-25T04:12:12.845Z,18.62
2023-05-25T04:13:12.827Z,18.60
2023-05-25T04:14:12.821Z,18.62
2023-05-25T04:15:12.857Z,18.58
2023-05-25T04:16:12.821Z,18.58
2023-05-25T04:17:12.786Z,18.60
2023-05-25T04:18:12.812Z,18.60
2023-05-25T04:19:12.766Z,18.58
2023-05-25T04:20:12.888Z,18.58
2023-05-25T04:21:12.744Z,18.60
2023-05-25T04:22:12.734Z,18.60
2023-05-25T04:23:12.724Z,18.58
2023-05-25T04:24:12.710Z,18.58
2023-05-25T04:25:12.702Z,18.58
2023-05-25T04:26:12.758Z,18.60
2023-05-25T04:27:12.681Z,18.58
2023-05-25T04:28:12.677Z,18.60
2023-05-25T04:29:12.657Z,18.60
2023-05-25T04:30:12.646Z,18.58
2023-05-25T04:31:12.734Z,18.58
2023-05-25T04:32:12.624Z,18.60
2023-05-25T04:33:12.700Z,18.60
2023-05-25T04:34:12.613Z,18.60
2023-05-25T04:35:12.590Z,18.60
2023-05-25T04:36:12.623Z,18.57
2023-05-25T04:37:12.575Z,18.60
2023-05-25T04:38:12.584Z,18.60
2023-05-25T04:39:12.549Z,18.62
2023-05-25T04:40:12.580Z,18.60
2023-05-25T04:41:12.528Z,18.62
2023-05-25T04:42:12.581Z,18.58
2023-05-25T04:43:12.509Z,18.60
2023-05-25T04:44:12.496Z,18.60
2023-05-25T04:45:12.484Z,18.58
2023-05-25T04:46:12.534Z,18.60
2023-05-25T04:47:12.511Z,18.58
2023-05-25T04:48:12.450Z,18.58
2023-05-25T04:49:12.438Z,18.60
2023-05-25T04:50:12.468Z,18.60
2023-05-25T04:51:12.569Z,18.60
2023-05-25T04:52:12.410Z,18.60
2023-05-25T04:53:12.396Z,18.62
2023-05-25T04:54:12.391Z,18.60
2023-05-25T04:55:12.387Z,18.60
2023-05-25T04:56:12.365Z,18.60
2023-05-25T04:57:12.403Z,18.58
2023-05-25T04:58:14.465Z,18.58
2023-05-25T04:59:12.334Z,18.60
2023-05-25T05:00:12.327Z,18.60
2023-05-25T05:01:12.336Z,18.60
2023-05-25T05:02:12.347Z,18.62
2023-05-25T05:03:12.429Z,18.62
2023-05-25T05:04:12.319Z,18.60
2023-05-25T05:05:12.309Z,18.58
2023-05-25T05:06:12.262Z,18.60
2023-05-25T05:07:12.248Z,18.60
2023-05-25T05:08:12.245Z,18.60
2023-05-25T05:09:12.266Z,18.60
2023-05-25T05:10:12.215Z,18.58
2023-05-25T05:11:12.204Z,18.60
2023-05-25T05:12:12.332Z,18.58
2023-05-25T05:13:12.184Z,18.58
2023-05-25T05:14:12.239Z,18.60
2023-05-25T05:15:12.161Z,18.60
2023-05-25T05:16:12.216Z,18.60
2023-05-25T05:17:12.175Z,18.58
2023-05-25T05:18:12.243Z,18.60
2023-05-25T05:19:12.119Z,18.62
2023-05-25T05:20:12.185Z,18.60
2023-05-25T05:21:12.100Z,18.60
2023-05-25T05:22:12.127Z,18.60
2023-05-25T05:23:12.086Z,18.60
2023-05-25T05:24:12.065Z,18.60
2023-05-25T05:25:12.056Z,18.62
2023-05-25T05:26:12.043Z,18.60
2023-05-25T05:27:12.077Z,18.60
2023-05-25T05:28:12.024Z,18.60
2023-05-25T05:29:12.017Z,18.60
2023-05-25T05:30:12.121Z,18.62
2023-05-25T05:31:12.151Z,18.60
2023-05-25T05:32:11.995Z,18.62
2023-05-25T05:33:12.017Z,18.60
2023-05-25T05:34:12.003Z,18.60
2023-05-25T05:35:11.959Z,18.60
2023-05-25T05:36:11.945Z,18.60
2023-05-25T05:37:11.977Z,18.60
2023-05-25T05:38:11.919Z,18.60
2023-05-25T05:39:11.916Z,18.58
2023-05-25T05:40:11.913Z,18.62
2023-05-25T05:41:11.926Z,18.60
2023-05-25T05:42:11.880Z,18.60
2023-05-25T05:43:11.863Z,18.62
2023-05-25T05:44:11.852Z,18.60
2023-05-25T05:45:11.841Z,18.60
2023-05-25T05:46:12.070Z,18.60
2023-05-25T05:47:11.827Z,18.60
2023-05-25T05:48:11.856Z,18.60
2023-05-25T05:49:11.804Z,18.60
2023-05-25T05:50:11.792Z,18.60
2023-05-25T05:51:11.784Z,18.60
2023-05-25T05:52:11.814Z,18.60
2023-05-25T05:53:11.781Z,18.60
2023-05-25T05:54:11.801Z,18.62
2023-05-25T05:55:11.745Z,18.62
2023-05-25T05:56:11.726Z,18.60
2023-05-25T05:57:11.752Z,18.62
2023-05-25T05:58:11.709Z,18.62
2023-05-25T05:59:11.690Z,18.62
2023-05-25T06:00:11.680Z,18.60
2023-05-25T06:01:11.718Z,18.62
2023-05-25T06:02:11.727Z,18.62
2023-05-25T06:03:11.730Z,18.62
2023-05-25T06:04:11.656Z,18.60
2023-05-25T06:05:11.712Z,18.62
2023-05-25T06:06:11.694Z,18.62
2023-05-25T06:07:11.612Z,18.62
2023-05-25T06:08:11.597Z,18.62
2023-05-25T06:09:11.622Z,18.62
2023-05-25T06:10:11.595Z,18.62
2023-05-25T06:11:11.561Z,18.62
2023-05-25T06:12:11.546Z,18.63
2023-05-25T06:13:11.553Z,18.62
2023-05-25T06:14:11.591Z,18.62
2023-05-25T06:15:11.524Z,18.65
2023-05-25T06:16:11.593Z,18.66
2023-05-25T06:17:11.565Z,18.66
2023-05-25T06:18:11.605Z,18.66
2023-05-25T06:19:11.508Z,18.69
2023-05-25T06:20:11.532Z,18.69
2023-05-25T06:21:12.910Z,18.70
2023-05-25T06:22:11.440Z,18.70
2023-05-25T06:23:11.426Z,18.72
2023-05-25T06:24:11.477Z,18.70
2023-05-25T06:25:11.410Z,18.70
2023-05-25T06:26:11.400Z,18.69
2023-05-25T06:27:11.385Z,18.70
2023-05-25T06:28:11.382Z,18.70
2023-05-25T06:29:11.413Z,18.72
2023-05-25T06:30:11.371Z,18.73
2023-05-25T06:31:11.343Z,18.72
2023-05-25T06:32:11.491Z,18.72
2023-05-25T06:33:11.388Z,18.72
2023-05-25T06:34:11.366Z,18.72
2023-05-25T06:35:13.327Z,18.70
2023-05-25T06:36:11.293Z,18.70
2023-05-25T06:37:11.338Z,18.70
2023-05-25T06:38:11.270Z,18.72
2023-05-25T06:39:11.262Z,18.72
2023-05-25T06:40:11.252Z,18.72
2023-05-25T06:41:11.238Z,18.72
2023-05-25T06:42:11.259Z,18.72
2023-05-25T06:43:11.259Z,18.72
2023-05-25T06:44:11.203Z,18.72
2023-05-25T06:45:11.207Z,18.70
2023-05-25T06:46:11.232Z,18.70
2023-05-25T06:47:11.174Z,18.72
2023-05-25T06:48:11.176Z,18.70
2023-05-25T06:49:11.155Z,18.72
2023-05-25T06:50:11.201Z,18.70
2023-05-25T06:51:11.130Z,18.73
2023-05-25T06:52:11.129Z,18.73
2023-05-25T06:53:11.111Z,18.73
2023-05-25T06:54:11.095Z,18.73
2023-05-25T06:55:11.130Z,18.73
2023-05-25T06:56:11.114Z,18.73
2023-05-25T06:57:11.068Z,18.73
2023-05-25T06:58:11.053Z,18.73
2023-05-25T06:59:11.043Z,18.73
2023-05-25T07:00:11.026Z,18.73
2023-05-25T07:01:11.046Z,18.73
2023-05-25T07:02:11.055Z,18.73
2023-05-25T07:03:11.040Z,18.72
2023-05-25T07:04:11.005Z,18.73
2023-05-25T07:05:11.052Z,18.72
2023-05-25T07:06:10.998Z,18.73
2023-05-25T07:07:10.997Z,18.73
2023-05-25T07:08:10.952Z,18.70
2023-05-25T07:09:10.936Z,18.72
2023-05-25T07:10:10.924Z,18.73
2023-05-25T07:11:10.912Z,18.73
2023-05-25T07:12:10.936Z,18.73
2023-05-25T07:13:10.902Z,18.73
2023-05-25T07:14:10.929Z,18.73
2023-05-25T07:15:10.881Z,18.72
2023-05-25T07:16:10.897Z,18.72
2023-05-25T07:17:10.850Z,18.73
2023-05-25T07:18:10.840Z,18.72
2023-05-25T07:19:10.871Z,18.73
2023-05-25T07:20:10.941Z,18.75
2023-05-25T07:21:10.805Z,18.75
2023-05-25T07:22:10.853Z,18.73
2023-05-25T07:23:10.791Z,18.73
2023-05-25T07:24:10.828Z,18.75
2023-05-25T07:25:10.769Z,18.75
2023-05-25T07:26:10.758Z,18.75
2023-05-25T07:27:10.746Z,18.73
2023-05-25T07:28:10.734Z,18.75
2023-05-25T07:29:10.760Z,18.73
2023-05-25T07:30:10.713Z,18.73
2023-05-25T07:31:10.736Z,18.72
2023-05-25T07:32:10.692Z,18.72
2023-05-25T07:33:10.716Z,18.75
2023-05-25T07:34:10.711Z,18.72
2023-05-25T07:35:10.658Z,18.73
2023-05-25T07:36:10.651Z,18.73
2023-05-25T07:37:10.637Z,18.73
2023-05-25T07:38:10.668Z,18.72
2023-05-25T07:39:10.663Z,18.72
2023-05-25T07:40:10.613Z,18.72
2023-05-25T07:41:10.592Z,18.72
2023-05-25T07:42:10.621Z,18.72
2023-05-25T07:43:10.585Z,18.70
2023-05-25T07:44:10.561Z,18.70
2023-05-25T07:45:10.550Z,18.72
2023-05-25T07:46:10.584Z,18.70
2023-05-25T07:47:10.597Z,18.70
2023-05-25T07:48:10.557Z,18.70
2023-05-25T07:49:10.508Z,18.72
2023-05-25T07:50:10.498Z,18.72
2023-05-25T07:51:10.484Z,18.72
2023-05-25T07:52:10.519Z,18.72
2023-05-25T07:53:10.465Z,18.73
2023-05-25T07:54:10.477Z,18.72
2023-05-25T07:55:10.517Z,18.72
2023-05-25T07:56:10.737Z,18.73
2023-05-25T07:57:10.426Z,18.72
2023-05-25T07:58:10.421Z,18.73
2023-05-25T07:59:10.408Z,18.73
2023-05-25T08:00:10.430Z,18.73
2023-05-25T08:01:10.380Z,18.73
2023-05-25T08:02:10.426Z,18.75
2023-05-25T08:03:10.479Z,18.73
2023-05-25T08:04:10.472Z,18.73
2023-05-25T08:05:10.528Z,18.75
2023-05-25T08:06:10.366Z,18.73
2023-05-25T08:07:10.313Z,18.73
2023-05-25T08:08:10.299Z,18.75
2023-05-25T08:09:10.297Z,18.75
2023-05-25T08:10:10.319Z,18.73
2023-05-25T08:11:10.271Z,18.75
2023-05-25T08:13:10.251Z,18.78
2023-05-25T08:14:10.279Z,18.78
2023-05-25T08:15:10.224Z,18.80
2023-05-25T08:16:10.217Z,18.80
2023-05-25T08:17:10.271Z,18.81
2023-05-25T08:18:10.231Z,18.80
2023-05-25T08:19:10.178Z,18.82
2023-05-25T08:20:10.292Z,18.81
2023-05-25T08:21:10.154Z,18.81
2023-05-25T08:22:10.155Z,18.84
2023-05-25T08:23:10.172Z,18.82
2023-05-25T08:24:10.134Z,18.82
2023-05-25T08:25:10.118Z,18.82
2023-05-25T08:26:25.947Z,18.85
2023-05-25T08:27:11.090Z,18.85
2023-05-25T08:28:10.128Z,18.85
2023-05-25T08:29:10.069Z,18.85
2023-05-25T08:30:10.059Z,18.87
2023-05-25T08:31:10.138Z,18.87
2023-05-25T08:32:10.049Z,18.88
2023-05-25T08:33:10.149Z,18.85
2023-05-25T08:34:10.016Z,18.87
2023-05-25T08:35:10.005Z,18.85
2023-05-25T08:36:10.030Z,18.85
2023-05-25T08:37:09.985Z,18.85
2023-05-25T08:38:10.011Z,18.84
2023-05-25T08:39:10.002Z,18.84
2023-05-25T08:40:09.950Z,18.84
2023-05-25T08:41:09.950Z,18.84
2023-05-25T08:42:09.994Z,18.85
2023-05-25T08:43:09.955Z,18.85
2023-05-25T08:44:09.908Z,18.85
2023-05-25T08:45:12.422Z,18.85
2023-05-25T08:46:10.887Z,18.85
2023-05-25T08:47:09.875Z,18.85
2023-05-25T08:48:09.996Z,18.87
2023-05-25T08:49:10.080Z,18.87
2023-05-25T08:50:09.842Z,18.88
2023-05-25T08:51:10.761Z,18.87
2023-05-25T08:52:09.866Z,18.88
2023-05-25T08:53:09.853Z,18.90
2023-05-25T08:54:09.806Z,18.88
2023-05-25T08:55:09.792Z,18.91
2023-05-25T08:56:09.774Z,18.90
2023-05-25T08:57:09.766Z,18.88
2023-05-25T08:58:09.820Z,18.88
2023-05-25T08:59:09.745Z,18.88
2023-05-25T09:00:09.779Z,18.87
2023-05-25T09:01:09.722Z,18.88
2023-05-25T09:02:09.739Z,18.88
2023-05-25T09:03:09.846Z,18.88
2023-05-25T09:04:09.764Z,18.88
2023-05-25T09:05:09.722Z,18.87
2023-05-25T09:06:09.673Z,18.87
2023-05-25T09:07:11.191Z,18.87
2023-05-25T09:08:09.648Z,18.90
2023-05-25T09:09:09.683Z,18.88
2023-05-25T09:10:09.623Z,18.88
2023-05-25T09:11:09.967Z,18.88
2023-05-25T09:12:09.641Z,18.88
2023-05-25T09:13:21.165Z,18.88
2023-05-25T09:14:10.606Z,18.87
2023-05-25T09:15:09.569Z,18.85
2023-05-25T09:16:09.598Z,18.85
2023-05-25T09:17:09.590Z,18.85
2023-05-25T09:18:11.017Z,18.85
2023-05-25T09:19:09.568Z,18.85
2023-05-25T09:20:09.613Z,18.84
2023-05-25T09:21:09.515Z,18.85
2023-05-25T09:23:09.495Z,18.87
2023-05-25T09:24:09.479Z,18.88
2023-05-25T09:25:09.513Z,18.88
2023-05-25T09:26:09.462Z,18.88
2023-05-25T09:27:09.445Z,18.88
2023-05-25T09:28:24.847Z,18.90
2023-05-25T09:29:10.424Z,18.90
2023-05-25T09:30:09.487Z,18.90
2023-05-25T09:31:09.448Z,18.90
2023-05-25T09:32:09.433Z,18.90
2023-05-25T09:33:09.435Z,18.90
2023-05-25T09:34:09.416Z,18.90
2023-05-25T09:35:09.377Z,18.90
2023-05-25T09:36:09.375Z,18.90
2023-05-25T09:37:09.534Z,18.91
2023-05-25T09:38:09.505Z,18.90
2023-05-25T09:39:09.527Z,18.90
2023-05-25T09:40:09.321Z,18.90
2023-05-25T09:41:09.301Z,18.90
2023-05-25T09:42:09.288Z,18.90
2023-05-25T09:43:09.293Z,18.90
2023-05-25T09:44:11.528Z,18.91
2023-05-25T09:45:09.305Z,18.91
2023-05-25T09:46:09.300Z,18.90
2023-05-25T09:47:09.234Z,18.91
2023-05-25T09:48:09.273Z,18.91
2023-05-25T09:49:09.214Z,18.91
2023-05-25T09:50:09.245Z,18.91
2023-05-25T09:51:09.193Z,18.91
2023-05-25T09:52:09.183Z,18.91
2023-05-25T09:53:09.203Z,18.88
2023-05-25T09:54:09.165Z,18.90
2023-05-25T09:55:09.147Z,18.88
2023-05-25T09:56:09.176Z,18.88
2023-05-25T09:57:09.132Z,18.87
2023-05-25T09:58:09.120Z,18.87
2023-05-25T09:59:09.107Z,18.85
2023-05-25T10:00:09.138Z,18.85
2023-05-25T10:01:09.167Z,18.84
2023-05-25T10:02:09.103Z,18.84
2023-05-25T10:03:09.115Z,18.84
2023-05-25T10:04:09.051Z,18.82
2023-05-25T10:05:09.115Z,18.81
2023-05-25T10:06:09.056Z,18.82
2023-05-25T10:07:09.068Z,18.82
2023-05-25T10:08:09.013Z,18.80
2023-05-25T10:09:09.020Z,18.81
2023-05-25T10:10:08.986Z,18.81
2023-05-25T10:11:08.979Z,18.80
2023-05-25T10:12:09.006Z,18.81
2023-05-25T10:13:08.992Z,18.80
2023-05-25T10:14:08.942Z,18.81
2023-05-25T10:15:08.933Z,18.80
2023-05-25T10:16:08.962Z,18.80
2023-05-25T10:17:08.950Z,18.78
2023-05-25T10:18:08.966Z,18.78
2023-05-25T10:19:08.932Z,18.78
2023-05-25T10:20:08.973Z,18.80
2023-05-25T10:21:08.905Z,18.78
2023-05-25T10:22:08.857Z,18.78
2023-05-25T10:23:08.847Z,18.76
2023-05-25T10:24:08.882Z,18.78
2023-05-25T10:25:08.827Z,18.76
2023-05-25T10:26:09.318Z,18.76
2023-05-25T10:27:22.498Z,18.76
2023-05-25T10:28:09.790Z,18.78
2023-05-25T10:29:08.825Z,18.76
2023-05-25T10:30:08.768Z,18.76
2023-05-25T10:31:08.831Z,18.76
2023-05-25T10:32:08.828Z,18.75
2023-05-25T10:33:08.829Z,18.76
2023-05-25T10:34:08.790Z,18.75
2023-05-25T10:35:08.716Z,18.76
2023-05-25T10:36:11.252Z,18.76
2023-05-25T10:37:08.693Z,18.76
2023-05-25T10:38:08.680Z,18.76
2023-05-25T10:39:09.158Z,18.76
2023-05-25T10:40:08.663Z,18.75
2023-05-25T10:41:08.655Z,18.75
2023-05-25T10:42:08.637Z,18.75
2023-05-25T10:43:08.627Z,18.76
2023-05-25T10:44:08.662Z,18.75
2023-05-25T10:45:08.606Z,18.75
2023-05-25T10:46:08.595Z,18.76
2023-05-25T10:47:08.634Z,18.75
2023-05-25T10:48:08.611Z,18.75
2023-05-25T10:49:08.608Z,18.76
2023-05-25T10:50:08.573Z,18.75
2023-05-25T10:51:10.137Z,18.73
2023-05-25T10:52:08.535Z,18.75
2023-05-25T10:53:08.555Z,18.75
2023-05-25T10:54:08.556Z,18.75
2023-05-25T10:55:08.494Z,18.73
2023-05-25T10:56:08.486Z,18.73
2023-05-25T10:57:08.471Z,18.73
2023-05-25T10:58:08.473Z,18.75
2023-05-25T10:59:08.480Z,18.75
2023-05-25T11:00:08.486Z,18.75
2023-05-25T11:01:08.549Z,18.75
2023-05-25T11:02:09.419Z,18.75
2023-05-25T11:03:08.469Z,18.76
2023-05-25T11:04:08.475Z,18.75
2023-05-25T11:05:08.431Z,18.75
2023-05-25T11:06:08.402Z,18.75
2023-05-25T11:07:08.417Z,18.75
2023-05-25T11:08:08.953Z,18.73
2023-05-25T11:09:08.353Z,18.73
2023-05-25T11:10:08.355Z,18.76
2023-05-25T11:11:08.364Z,18.73
2023-05-25T11:12:08.326Z,18.75
2023-05-25T11:13:08.326Z,18.73
2023-05-25T11:14:08.300Z,18.75
2023-05-25T11:15:08.293Z,18.75
2023-05-25T11:16:08.318Z,18.73
2023-05-25T11:17:08.443Z,18.73
2023-05-25T11:18:08.301Z,18.73
2023-05-25T11:19:08.239Z,18.72
2023-05-25T11:20:08.276Z,18.73
2023-05-25T11:21:08.225Z,18.75
2023-05-25T11:22:08.290Z,18.75
2023-05-25T11:23:08.194Z,18.73
2023-05-25T11:24:08.186Z,18.75
2023-05-25T11:25:08.181Z,18.75
2023-05-25T11:26:08.165Z,18.73
2023-05-25T11:27:08.197Z,18.73
2023-05-25T11:28:08.190Z,18.72
2023-05-25T11:29:08.131Z,18.75
2023-05-25T11:30:08.123Z,18.73
2023-05-25T11:31:08.181Z,18.73
2023-05-25T11:32:08.100Z,18.73
2023-05-25T11:33:08.184Z,18.75
2023-05-25T11:34:08.101Z,18.75
2023-05-25T11:35:08.066Z,18.75
2023-05-25T11:36:08.063Z,18.75
2023-05-25T11:37:09.632Z,18.73
2023-05-25T11:38:08.122Z,18.73
2023-05-25T11:39:17.002Z,18.75
2023-05-25T11:40:09.054Z,18.73
2023-05-25T11:41:08.011Z,18.73
2023-05-25T11:42:07.993Z,18.73
2023-05-25T11:43:07.981Z,18.75
2023-05-25T11:44:07.980Z,18.75
2023-05-25T11:45:07.994Z,18.73
2023-05-25T11:46:07.975Z,18.75
2023-05-25T11:47:07.992Z,18.75
2023-05-25T11:48:07.971Z,18.73
2023-05-25T11:49:07.918Z,18.73
2023-05-25T11:50:07.946Z,18.75
2023-05-25T11:51:07.923Z,18.75
2023-05-25T11:52:07.897Z,18.73
2023-05-25T11:53:07.894Z,18.73
2023-05-25T11:54:07.923Z,18.73
2023-05-25T11:55:07.853Z,18.75
2023-05-25T11:56:08.554Z,18.73
2023-05-25T11:57:07.837Z,18.73
2023-05-25T11:58:07.846Z,18.75
2023-05-25T11:59:07.878Z,18.75
2023-05-25T12:00:07.794Z,18.75
2023-05-25T12:01:07.783Z,18.76
2023-05-25T12:02:07.773Z,18.76
2023-05-25T12:03:07.812Z,18.76
2023-05-25T12:04:07.891Z,18.78
2023-05-25T12:05:10.084Z,18.78
2023-05-25T12:06:07.729Z,18.78
2023-05-25T12:07:07.719Z,18.78
2023-05-25T12:08:07.720Z,18.80
2023-05-25T12:09:07.699Z,18.78
2023-05-25T12:10:07.752Z,18.80
2023-05-25T12:11:07.672Z,18.80
2023-05-25T12:12:07.663Z,18.80
2023-05-25T12:13:07.653Z,18.81
2023-05-25T12:14:07.679Z,18.82
2023-05-25T12:15:07.801Z,18.82
2023-05-25T12:16:07.618Z,18.82
2023-05-25T12:17:07.714Z,18.84
2023-05-25T12:18:07.669Z,18.84
2023-05-25T12:19:07.595Z,18.87
2023-05-25T12:20:07.746Z,18.85
2023-05-25T12:21:07.567Z,18.84
2023-05-25T12:22:07.552Z,18.84
2023-05-25T12:23:07.826Z,18.87
2023-05-25T12:24:07.578Z,18.87
2023-05-25T12:25:07.525Z,18.85
2023-05-25T12:26:07.531Z,18.87
2023-05-25T12:27:07.503Z,18.85
2023-05-25T12:28:07.485Z,18.85
2023-05-25T12:29:07.512Z,18.85
2023-05-25T12:30:07.478Z,18.87
2023-05-25T12:31:07.492Z,18.87
2023-05-25T12:32:07.446Z,18.87
2023-05-25T12:33:07.525Z,18.88
2023-05-25T12:34:07.432Z,18.87
2023-05-25T12:35:07.454Z,18.88
2023-05-25T12:36:07.404Z,18.90
2023-05-25T12:37:07.438Z,18.88
2023-05-25T12:38:07.380Z,18.90
2023-05-25T12:39:07.380Z,18.88
2023-05-25T12:40:07.432Z,18.87
2023-05-25T12:41:07.376Z,18.88
2023-05-25T12:42:07.378Z,18.87
2023-05-25T12:43:07.353Z,18.88
2023-05-25T12:44:07.366Z,18.87
2023-05-25T12:45:07.316Z,18.88
2023-05-25T12:46:07.370Z,18.88
2023-05-25T12:47:07.342Z,18.88
2023-05-25T12:48:07.407Z,18.88
2023-05-25T12:49:07.277Z,18.90
2023-05-25T12:50:07.271Z,18.90
2023-05-25T12:51:07.247Z,18.90
2023-05-25T12:52:07.272Z,18.90
2023-05-25T12:53:07.220Z,18.90
2023-05-25T12:54:07.217Z,18.90
2023-05-25T12:55:07.244Z,18.90
2023-05-25T12:56:07.187Z,18.90
2023-05-25T12:57:07.220Z,18.88
2023-05-25T12:58:07.192Z,18.88
2023-05-25T12:59:07.155Z,18.90
2023-05-25T13:00:07.213Z,18.90
2023-05-25T13:01:07.132Z,18.90
2023-05-25T13:02:07.218Z,18.90
2023-05-25T13:03:07.221Z,18.90
2023-05-25T13:04:07.101Z,18.90
2023-05-25T13:05:07.141Z,18.90
2023-05-25T13:06:07.079Z,18.91
2023-05-25T13:07:07.070Z,18.91
2023-05-25T13:08:07.288Z,18.91
2023-05-25T13:09:07.047Z,18.91
2023-05-25T13:10:07.221Z,18.90
2023-05-25T13:11:07.036Z,18.91
2023-05-25T13:12:07.045Z,18.91
2023-05-25T13:13:07.061Z,18.91
2023-05-25T13:14:07.021Z,18.92
2023-05-25T13:15:06.987Z,18.94
2023-05-25T13:16:06.998Z,18.92